SCNT

Tte. Julio Gallardo Airport

Airport
ICAO code
SCNT
IATA Code
PNT
Summary
ICAO Region
CARSAM
ICAO Territory
Location

Puerto Natales, Magallanes y de la Antartica Chilena

Serving
Puerto Natales
Elevation
217 ft
Coordinates
51° 43' 60" S , 72° 31' 0" W
KCC
Cfb
Metar
Observation
SCNT 121900Z 29015KT 9999 SCT040 BKN100 04/M01 Q0992
Station
TENIENTE GALLARD
Date/Time
2022-08-12 19:00:00
Wind direction
290°
Wind speed
15 kts
Lowest cloud amount
scattered clouds
Temperature
4°C
Dew point
-1°C
Humidity
69%
QNH
992 hPa
Weather condition
n/a

Airport located 7 km north-northwest of Puerto Natales, Chile.

Climatology

Temperate oceanic climate (Köppen climate classification Cfb)

Runways

Designator Length Width Surface Rops
10/28 1764 30 ASP No/No

Airport map

Aerial View

SKYbrary Partners:

Safety knowledge contributed by: